(°C)
16°
14°
13°
11°
10°
(°C)
12°
10°
ZSZ
ZSZ
ZSZ
ZSZ
Z
Z
Z
(km/h)
15-28
13-22
11-19
10-17
9-15
8-19
8-14
(mm)
0
0
0
0
0
0
0
(%)
0
0
0
0
0
0
0

Sluneční výška

/ -6.8°
sun-icon
UV 3
06:43
18:05
Dorůstající měsíc (136°)
17:22
01:35

METAR pro 52.17°S 20.97°V (EPWA)

Čas Podmínky Teplota/
Rosný bod
Vítr Viditelnost Počasí Oblaky Tlak Změna Nezpracované
VFR 16°C / 8°C 270º 8kt >10km - Clouds and Visibility OK 1027 No Significant change EPWA 061600Z 27008KT CAVOK 16/08 Q1027 NOSIG
VFR 17°C / 7°C 270º 12kt >10km - Clouds and Visibility OK 1026 No Significant change EPWA 061530Z 27012KT CAVOK 17/07 Q1026 NOSIG
VFR 18°C / 8°C 280º 12kt >10km - Few Clouds 4000ft 1026 No Significant change EPWA 061500Z 28012KT 9999 FEW040 18/08 Q1026 NOSIG
VFR 18°C / 9°C 270º 16kt >10km - Few Clouds 3300ft 1026 No Significant change EPWA 061430Z 27016KT 9999 FEW033 18/09 Q1026 NOSIG
VFR 19°C / 11°C 290º 14kt >10km - Few Clouds 3300ft 1025 No Significant change EPWA 061400Z 29014KT 9999 FEW033 19/11 Q1025 NOSIG
VFR 19°C / 12°C 270º 12kt >10km - Scattered Clouds 3300ft 1025 No Significant change EPWA 061330Z 27012KT 9999 SCT033 19/12 Q1025 NOSIG
VFR 18°C / 12°C 260º 15kt >10km - Scattered Clouds 3300ft 1025 No Significant change EPWA 061300Z 26015KT 9999 SCT033 18/12 Q1025 NOSIG
VFR 19°C / 12°C 270º 12kt >10km - Few Clouds 4000ft 1024 No Significant change EPWA 061230Z 27012KT 9999 FEW040 19/12 Q1024 NOSIG
VFR 19°C / 12°C 270º 14kt >10km - Few Clouds 3000ft 1024 No Significant change EPWA 061200Z 27014KT 9999 FEW030 19/12 Q1024 NOSIG
VFR 19°C / 13°C 270º 9kt >10km - Few Clouds 3000ft 1024 No Significant change EPWA 061130Z 27009KT 9999 FEW030 19/13 Q1024 NOSIG
VFR 18°C / 13°C 270º 12kt >10km - Few Clouds 2800ft
Broken Clouds 4200ft
1024 No Significant change EPWA 061100Z 27012KT 9999 FEW028 BKN042 18/13 Q1024 NOSIG
VFR 18°C / 13°C 280º 14kt >10km - Few Clouds 2700ft
Broken Clouds 4200ft
1024 No Significant change EPWA 061030Z 28014KT 9999 FEW027 BKN042 18/13 Q1024 NOSIG
VFR 18°C / 13°C 270º 13kt >10km - Few Clouds 2600ft
Scattered Clouds 4600ft
1023 No Significant change EPWA 061000Z 27013KT 9999 FEW026 SCT046 18/13 Q1023 NOSIG
VFR 18°C / 12°C 260º 15kt >10km - Few Clouds 2000ft
Broken Clouds 4000ft
1023 No Significant change EPWA 060930Z 26015KT 9999 FEW020 BKN040 18/12 Q1023 NOSIG
VFR 17°C / 12°C 250º 10kt >10km - Few Clouds 4300ft 1023 No Significant change EPWA 060900Z 25010KT 9999 FEW043 17/12 Q1023 NOSIG
VFR 16°C / 12°C 250º 8kt >10km - Broken Clouds 4000ft 1023 No Significant change EPWA 060830Z 25008KT 9999 BKN040 16/12 Q1023 NOSIG
VFR 15°C / 11°C 250º 10kt >10km - Broken Clouds 3600ft 1022 No Significant change EPWA 060800Z 25010KT 9999 BKN036 15/11 Q1022 NOSIG
VFR 15°C / 11°C 260º 12kt >10km - Broken Clouds 4600ft 1022 No Significant change EPWA 060730Z 26012KT 9999 BKN046 15/11 Q1022 NOSIG
VFR 15°C / 11°C 260º 12kt >10km - Clouds and Visibility OK 1022 No Significant change EPWA 060700Z 26012KT CAVOK 15/11 Q1022 NOSIG
VFR 14°C / 11°C 250º 9kt >10km - Clouds and Visibility OK 1021 No Significant change EPWA 060630Z 25009KT CAVOK 14/11 Q1021 NOSIG
VFR 13°C / 10°C 250º 9kt >10km - Clouds and Visibility OK 1021 No Significant change EPWA 060600Z 25009KT CAVOK 13/10 Q1021 NOSIG
VFR 13°C / 10°C 250º 7kt >10km - Clouds and Visibility OK 1020 No Significant change EPWA 060530Z 25007KT CAVOK 13/10 Q1020 NOSIG
VFR 12°C / 9°C 240º 6kt >10km - Clouds and Visibility OK 1020 No Significant change EPWA 060500Z 24006KT CAVOK 12/09 Q1020 NOSIG
VFR 12°C / 9°C 230º 6kt >10km - Clouds and Visibility OK 1020 No Significant change EPWA 060430Z 23006KT CAVOK 12/09 Q1020 NOSIG

VFR

16°C / 8°C

[Víc]
Vítr 270º 8kt
Viditelnost >10km
Počasí -
Oblaky Clouds and Visibility OK
Tlak 1027
Změna No Significant change
Nezpracované EPWA 061600Z 27008KT CAVOK 16/08 Q1027 NOSIG

VFR

17°C / 7°C

[Víc]
Vítr 270º 12kt
Viditelnost >10km
Počasí -
Oblaky Clouds and Visibility OK
Tlak 1026
Změna No Significant change
Nezpracované EPWA 061530Z 27012KT CAVOK 17/07 Q1026 NOSIG

VFR

18°C / 8°C

[Víc]
Vítr 280º 12kt
Viditelnost >10km
Počasí -
Oblaky Few Clouds 4000ft
Tlak 1026
Změna No Significant change
Nezpracované EPWA 061500Z 28012KT 9999 FEW040 18/08 Q1026 NOSIG

VFR

18°C / 9°C

[Víc]
Vítr 270º 16kt
Viditelnost >10km
Počasí -
Oblaky Few Clouds 3300ft
Tlak 1026
Změna No Significant change
Nezpracované EPWA 061430Z 27016KT 9999 FEW033 18/09 Q1026 NOSIG

VFR

19°C / 11°C

[Víc]
Vítr 290º 14kt
Viditelnost >10km
Počasí -
Oblaky Few Clouds 3300ft
Tlak 1025
Změna No Significant change
Nezpracované EPWA 061400Z 29014KT 9999 FEW033 19/11 Q1025 NOSIG

VFR

19°C / 12°C

[Víc]
Vítr 270º 12kt
Viditelnost >10km
Počasí -
Oblaky Scattered Clouds 3300ft
Tlak 1025
Změna No Significant change
Nezpracované EPWA 061330Z 27012KT 9999 SCT033 19/12 Q1025 NOSIG

VFR

18°C / 12°C

[Víc]
Vítr 260º 15kt
Viditelnost >10km
Počasí -
Oblaky Scattered Clouds 3300ft
Tlak 1025
Změna No Significant change
Nezpracované EPWA 061300Z 26015KT 9999 SCT033 18/12 Q1025 NOSIG

VFR

19°C / 12°C

[Víc]
Vítr 270º 12kt
Viditelnost >10km
Počasí -
Oblaky Few Clouds 4000ft
Tlak 1024
Změna No Significant change
Nezpracované EPWA 061230Z 27012KT 9999 FEW040 19/12 Q1024 NOSIG

VFR

19°C / 12°C

[Víc]
Vítr 270º 14kt
Viditelnost >10km
Počasí -
Oblaky Few Clouds 3000ft
Tlak 1024
Změna No Significant change
Nezpracované EPWA 061200Z 27014KT 9999 FEW030 19/12 Q1024 NOSIG

VFR

19°C / 13°C

[Víc]
Vítr 270º 9kt
Viditelnost >10km
Počasí -
Oblaky Few Clouds 3000ft
Tlak 1024
Změna No Significant change
Nezpracované EPWA 061130Z 27009KT 9999 FEW030 19/13 Q1024 NOSIG

VFR

18°C / 13°C

[Víc]
Vítr 270º 12kt
Viditelnost >10km
Počasí -
Oblaky Few Clouds 2800ft
Broken Clouds 4200ft
Tlak 1024
Změna No Significant change
Nezpracované EPWA 061100Z 27012KT 9999 FEW028 BKN042 18/13 Q1024 NOSIG

VFR

18°C / 13°C

[Víc]
Vítr 280º 14kt
Viditelnost >10km
Počasí -
Oblaky Few Clouds 2700ft
Broken Clouds 4200ft
Tlak 1024
Změna No Significant change
Nezpracované EPWA 061030Z 28014KT 9999 FEW027 BKN042 18/13 Q1024 NOSIG

VFR

18°C / 13°C

[Víc]
Vítr 270º 13kt
Viditelnost >10km
Počasí -
Oblaky Few Clouds 2600ft
Scattered Clouds 4600ft
Tlak 1023
Změna No Significant change
Nezpracované EPWA 061000Z 27013KT 9999 FEW026 SCT046 18/13 Q1023 NOSIG

VFR

18°C / 12°C

[Víc]
Vítr 260º 15kt
Viditelnost >10km
Počasí -
Oblaky Few Clouds 2000ft
Broken Clouds 4000ft
Tlak 1023
Změna No Significant change
Nezpracované EPWA 060930Z 26015KT 9999 FEW020 BKN040 18/12 Q1023 NOSIG

VFR

17°C / 12°C

[Víc]
Vítr 250º 10kt
Viditelnost >10km
Počasí -
Oblaky Few Clouds 4300ft
Tlak 1023
Změna No Significant change
Nezpracované EPWA 060900Z 25010KT 9999 FEW043 17/12 Q1023 NOSIG

VFR

16°C / 12°C

[Víc]
Vítr 250º 8kt
Viditelnost >10km
Počasí -
Oblaky Broken Clouds 4000ft
Tlak 1023
Změna No Significant change
Nezpracované EPWA 060830Z 25008KT 9999 BKN040 16/12 Q1023 NOSIG

VFR

15°C / 11°C

[Víc]
Vítr 250º 10kt
Viditelnost >10km
Počasí -
Oblaky Broken Clouds 3600ft
Tlak 1022
Změna No Significant change
Nezpracované EPWA 060800Z 25010KT 9999 BKN036 15/11 Q1022 NOSIG

VFR

15°C / 11°C

[Víc]
Vítr 260º 12kt
Viditelnost >10km
Počasí -
Oblaky Broken Clouds 4600ft
Tlak 1022
Změna No Significant change
Nezpracované EPWA 060730Z 26012KT 9999 BKN046 15/11 Q1022 NOSIG

VFR

15°C / 11°C

[Víc]
Vítr 260º 12kt
Viditelnost >10km
Počasí -
Oblaky Clouds and Visibility OK
Tlak 1022
Změna No Significant change
Nezpracované EPWA 060700Z 26012KT CAVOK 15/11 Q1022 NOSIG

VFR

14°C / 11°C

[Víc]
Vítr 250º 9kt
Viditelnost >10km
Počasí -
Oblaky Clouds and Visibility OK
Tlak 1021
Změna No Significant change
Nezpracované EPWA 060630Z 25009KT CAVOK 14/11 Q1021 NOSIG

VFR

13°C / 10°C

[Víc]
Vítr 250º 9kt
Viditelnost >10km
Počasí -
Oblaky Clouds and Visibility OK
Tlak 1021
Změna No Significant change
Nezpracované EPWA 060600Z 25009KT CAVOK 13/10 Q1021 NOSIG

VFR

13°C / 10°C

[Víc]
Vítr 250º 7kt
Viditelnost >10km
Počasí -
Oblaky Clouds and Visibility OK
Tlak 1020
Změna No Significant change
Nezpracované EPWA 060530Z 25007KT CAVOK 13/10 Q1020 NOSIG

VFR

12°C / 9°C

[Víc]
Vítr 240º 6kt
Viditelnost >10km
Počasí -
Oblaky Clouds and Visibility OK
Tlak 1020
Změna No Significant change
Nezpracované EPWA 060500Z 24006KT CAVOK 12/09 Q1020 NOSIG

VFR

12°C / 9°C

[Víc]
Vítr 230º 6kt
Viditelnost >10km
Počasí -
Oblaky Clouds and Visibility OK
Tlak 1020
Změna No Significant change
Nezpracované EPWA 060430Z 23006KT CAVOK 12/09 Q1020 NOSIG

TAF pro 52.17°S 20.97°V (EPWA)

From till


From till Wind 260º 12kt. Visibility 10km or more. Scattered Clouds 4000ft.
Becoming from till Wind variable 2kt. Visibility 10km or more. Scattered Clouds 4000ft.
Becoming from till Wind 200º 10kt. Visibility 10km or more. Scattered Clouds 4000ft.

Nezpracované: TAF EPWA 061430Z 0615/0715 26012KT 9999 SCT040 BECMG 0618/0621 VRB02KT BECMG 0707/0710 20010KT

Radar a krátkodobá předpověď srážek pro 52.17°S 20.97°V

Mrholení
Slabé
Střední
Silné
Velmi silné
Kroupy

Značka lokality je umístněna na 52.17°S 20.97°V. Tato animace ukazuje srážky zaznamenané radarem za poslední hodinu a také 1h předpověď. Mrholení nebo slabé sněžení může být pro radar neviditelné. Intenzita srážek je barevně označena od světle modré po oranžovou.

Aktuální snímky ze satelitu a srážky pro 52.17°S 20.97°V

Značka polohy je umístěna na 52.17°S 20.97°V. [Víc]

Satelitní snímek v reálném čase kombinuje viditelné světlo během dne s infračerveným zářením během noci. V noci není obraz tmavý, protože infračervené záření dokáže detekovat teplotní rozdíly. Nízká oblačnost a mlha se bohužel těžko odlišují od pozemních teplot, a proto mohou být během noci téměř neviditelné. Satelitní snímky z Meteosatu pro Evropu jsou aktualizovány v reálném čase každých 5 minut. Snímky z GOES-16/GOES-17 (Severní a Jižní Amerika) a Himawari (Asie) jsou aktualizovány) každých 10 minut.

Precipitation is estimated from radar and satellites. Precipitation estimates from satellites are less accurate at night than during daytime. Oranžové křížky označují místa, kde byl zaznamenán blesk (za Evropa).

Copyright 2022 EUMETSAT / meteoblue. Údaje o blescích poskytuje nowcast.

Zpět nahoru